createdAt,value
2022-12-29T00:01:01.988Z,71.79
2022-12-29T00:03:30.047Z,71.52
2022-12-29T00:05:59.556Z,71.54
2022-12-29T00:08:40.584Z,71.74
2022-12-29T00:11:09.609Z,71.48
2022-12-29T00:13:55.112Z,71.35
2022-12-29T00:16:23.070Z,72.09
2022-12-29T00:18:51.012Z,72.26
2022-12-29T00:21:39.556Z,72.40
2022-12-29T00:24:26.432Z,74.38
2022-12-29T00:27:17.010Z,76.47
2022-12-29T00:30:03.615Z,77.38
2022-12-29T00:32:48.348Z,79.18
2022-12-29T00:35:23.532Z,77.88
2022-12-29T00:38:11.022Z,77.60
2022-12-29T00:40:56.536Z,77.11
2022-12-29T00:43:41.917Z,76.47
2022-12-29T00:46:14.223Z,76.04
2022-12-29T00:49:02.956Z,75.55
2022-12-29T00:51:33.697Z,75.82
2022-12-29T00:54:03.345Z,76.84
2022-12-29T00:56:31.562Z,77.58
2022-12-29T00:59:02.441Z,79.24
2022-12-29T01:01:30.704Z,80.27
2022-12-29T01:04:03.729Z,81.16
2022-12-29T01:06:31.786Z,81.20
2022-12-29T01:09:17.051Z,82.13
2022-12-29T01:11:46.764Z,82.65
2022-12-29T01:14:14.996Z,82.24
2022-12-29T01:16:43.454Z,82.37
2022-12-29T01:19:11.466Z,81.90
2022-12-29T01:21:39.311Z,82.01
2022-12-29T01:24:07.769Z,81.46
2022-12-29T01:26:35.900Z,81.21
2022-12-29T01:29:05.157Z,81.60
2022-12-29T01:31:33.596Z,81.27
2022-12-29T01:34:01.602Z,81.59
2022-12-29T01:36:29.658Z,81.31
2022-12-29T01:38:57.625Z,80.59
2022-12-29T01:41:25.667Z,80.91
2022-12-29T01:43:56.034Z,80.45
2022-12-29T01:46:29.563Z,80.96
2022-12-29T01:49:02.821Z,80.88
2022-12-29T01:51:33.845Z,81.11
2022-12-29T01:54:05.285Z,80.54
2022-12-29T01:56:33.424Z,81.09
2022-12-29T01:59:07.441Z,80.89
2022-12-29T02:01:36.882Z,80.50
2022-12-29T02:04:05.504Z,80.72
2022-12-29T02:06:37.303Z,80.35
2022-12-29T02:09:05.434Z,80.63
2022-12-29T02:11:33.931Z,80.34
2022-12-29T02:14:03.771Z,80.26
2022-12-29T02:16:51.392Z,79.50
2022-12-29T02:19:49.652Z,80.79
2022-12-29T02:22:29.467Z,80.71
2022-12-29T02:25:38.810Z,80.25
2022-12-29T02:28:32.677Z,80.02
2022-12-29T02:31:10.691Z,80.14
2022-12-29T02:33:55.348Z,80.27
2022-12-29T02:36:32.169Z,79.92
2022-12-29T02:39:09.338Z,79.98
2022-12-29T02:41:47.706Z,79.40
2022-12-29T02:44:26.927Z,79.67
2022-12-29T02:47:02.676Z,79.73
2022-12-29T02:49:38.834Z,79.82
2022-12-29T02:52:10.699Z,80.09
2022-12-29T02:54:43.803Z,80.40
2022-12-29T02:57:18.273Z,80.09
2022-12-29T02:59:49.374Z,80.06
2022-12-29T03:02:33.117Z,79.20
2022-12-29T03:05:17.082Z,79.28
2022-12-29T03:07:54.314Z,79.68
2022-12-29T03:10:32.841Z,79.27
2022-12-29T03:13:24.736Z,78.52
2022-12-29T03:16:07.505Z,79.02
2022-12-29T03:18:47.920Z,78.62
2022-12-29T03:21:21.533Z,78.60
2022-12-29T03:23:51.001Z,78.75
2022-12-29T03:26:21.736Z,78.17
2022-12-29T03:28:54.934Z,78.36
2022-12-29T03:31:25.664Z,77.99
2022-12-29T03:33:57.495Z,78.42
2022-12-29T03:36:31.994Z,77.90
2022-12-29T03:39:06.029Z,78.11
2022-12-29T03:41:35.824Z,78.24
2022-12-29T03:44:03.880Z,78.15
2022-12-29T03:46:31.937Z,77.70
2022-12-29T03:49:01.559Z,77.64
2022-12-29T03:51:29.452Z,77.13
2022-12-29T03:53:57.423Z,76.76
2022-12-29T03:56:25.235Z,76.86
2022-12-29T03:58:52.991Z,76.47
2022-12-29T04:01:21.027Z,76.52
2022-12-29T04:03:49.149Z,76.24
2022-12-29T04:06:18.314Z,75.75
2022-12-29T04:08:46.310Z,75.79
2022-12-29T04:11:14.281Z,75.37
2022-12-29T04:13:42.415Z,75.31
2022-12-29T04:16:10.477Z,74.71
2022-12-29T04:18:38.359Z,74.65
2022-12-29T04:21:06.469Z,74.47
2022-12-29T04:23:39.051Z,74.29
2022-12-29T04:26:08.501Z,74.05
2022-12-29T04:28:36.536Z,73.80
2022-12-29T04:31:05.321Z,73.03
2022-12-29T04:33:33.501Z,72.49
2022-12-29T04:36:01.899Z,72.55
2022-12-29T04:38:29.767Z,72.40
2022-12-29T04:41:01.336Z,71.88
2022-12-29T04:43:29.265Z,71.69
2022-12-29T04:45:57.218Z,70.56
2022-12-29T04:48:25.178Z,70.98
2022-12-29T04:50:52.996Z,70.27
2022-12-29T04:53:21.054Z,69.89
2022-12-29T04:55:51.001Z,69.48
2022-12-29T04:58:22.933Z,69.55
2022-12-29T05:00:51.989Z,69.77
2022-12-29T05:03:20.003Z,69.10
2022-12-29T05:05:47.938Z,69.64
2022-12-29T05:08:15.766Z,69.58
2022-12-29T05:10:46.875Z,69.84
2022-12-29T05:13:15.138Z,70.37
2022-12-29T05:15:49.713Z,71.39
2022-12-29T05:18:18.188Z,71.55
2022-12-29T05:20:46.429Z,71.45
2022-12-29T05:23:14.434Z,71.53
2022-12-29T05:25:42.413Z,71.85
2022-12-29T05:28:10.293Z,71.50
2022-12-29T05:30:38.108Z,71.99
2022-12-29T05:33:07.688Z,72.53
2022-12-29T05:35:35.744Z,72.80
2022-12-29T05:38:03.654Z,72.79
2022-12-29T05:40:31.500Z,72.89
2022-12-29T05:42:59.286Z,72.38
2022-12-29T05:45:27.158Z,72.39
2022-12-29T05:47:55.008Z,72.30
2022-12-29T05:50:24.206Z,71.72
2022-12-29T05:52:52.190Z,71.34
2022-12-29T05:55:20.082Z,71.58
2022-12-29T05:57:48.024Z,70.87
2022-12-29T06:00:16.817Z,70.11
2022-12-29T06:02:44.845Z,69.52
2022-12-29T06:05:12.913Z,69.52
2022-12-29T06:07:42.070Z,69.90
2022-12-29T06:10:10.416Z,69.08
2022-12-29T06:12:38.185Z,69.30
2022-12-29T06:15:07.757Z,69.24
2022-12-29T06:17:35.562Z,68.53
2022-12-29T06:20:03.767Z,68.72
2022-12-29T06:22:31.655Z,68.46
2022-12-29T06:25:04.936Z,68.57
2022-12-29T06:27:33.740Z,68.87
2022-12-29T06:30:02.034Z,68.57
2022-12-29T06:32:29.983Z,68.10
2022-12-29T06:34:57.863Z,67.83
2022-12-29T06:37:25.755Z,68.50
2022-12-29T06:39:53.679Z,68.47
2022-12-29T06:42:22.763Z,68.63
2022-12-29T06:44:50.743Z,68.46
2022-12-29T06:47:18.534Z,68.58
2022-12-29T06:49:46.631Z,68.25
2022-12-29T06:52:14.474Z,68.14
2022-12-29T06:54:42.356Z,68.20
2022-12-29T06:57:10.484Z,69.41
2022-12-29T06:59:39.660Z,68.72
2022-12-29T07:02:07.867Z,68.77
2022-12-29T07:04:35.814Z,69.03
2022-12-29T07:07:03.942Z,69.03
2022-12-29T07:09:31.794Z,68.88
2022-12-29T07:11:59.850Z,68.93
2022-12-29T07:14:28.081Z,67.73
2022-12-29T07:16:57.364Z,68.00
2022-12-29T07:19:25.156Z,69.10
2022-12-29T07:21:52.919Z,69.11
2022-12-29T07:24:20.708Z,68.71
2022-12-29T07:26:48.457Z,68.81
2022-12-29T07:29:16.181Z,68.78
2022-12-29T07:31:44.187Z,68.21
2022-12-29T07:34:13.451Z,67.74
2022-12-29T07:36:41.271Z,67.81
2022-12-29T07:39:09.339Z,68.20
2022-12-29T07:41:37.113Z,68.37
2022-12-29T07:44:05.452Z,67.57
2022-12-29T07:46:53.873Z,68.03
2022-12-29T07:49:22.341Z,67.50
2022-12-29T07:51:50.199Z,67.18
2022-12-29T07:54:19.230Z,67.27
2022-12-29T07:56:47.291Z,67.66
2022-12-29T07:59:15.160Z,67.48
2022-12-29T08:01:43.174Z,67.13
2022-12-29T08:04:11.043Z,67.29
2022-12-29T08:06:40.238Z,67.17
2022-12-29T08:09:14.993Z,67.98
2022-12-29T08:11:46.233Z,67.30
2022-12-29T08:14:13.999Z,67.95
2022-12-29T08:16:41.953Z,68.35
2022-12-29T08:19:12.323Z,67.81
2022-12-29T08:21:42.192Z,68.56
2022-12-29T08:24:10.777Z,68.68
2022-12-29T08:26:38.927Z,69.42
2022-12-29T08:29:06.826Z,68.42
2022-12-29T08:31:34.604Z,70.00
2022-12-29T08:34:04.201Z,69.87
2022-12-29T08:36:32.517Z,70.01
2022-12-29T08:39:01.794Z,70.28
2022-12-29T08:41:29.638Z,69.85
2022-12-29T08:43:57.604Z,69.45
2022-12-29T08:46:25.501Z,69.53
2022-12-29T08:48:53.285Z,69.24
2022-12-29T08:51:24.833Z,68.83
2022-12-29T08:53:53.205Z,69.99
2022-12-29T08:56:24.665Z,69.29
2022-12-29T08:58:52.450Z,70.13
2022-12-29T09:01:21.091Z,71.98
2022-12-29T09:06:40.502Z,74.17
2022-12-29T09:09:09.089Z,75.26
2022-12-29T09:11:38.487Z,77.13
2022-12-29T09:14:06.625Z,79.22
2022-12-29T09:16:35.251Z,80.32
2022-12-29T09:19:04.017Z,80.15
2022-12-29T09:21:31.927Z,80.76
2022-12-29T09:23:59.847Z,82.12
2022-12-29T09:26:27.695Z,80.84
2022-12-29T09:28:57.777Z,80.58
2022-12-29T09:31:26.187Z,79.79
2022-12-29T09:33:54.121Z,82.39
2022-12-29T09:36:21.909Z,82.63
2022-12-29T09:38:49.645Z,82.11
2022-12-29T09:41:22.828Z,82.99
2022-12-29T09:44:05.198Z,83.67
2022-12-29T09:46:38.333Z,84.37
2022-12-29T09:49:18.385Z,84.97
2022-12-29T09:51:50.282Z,85.99
2022-12-29T09:54:41.355Z,87.54
2022-12-29T09:57:19.937Z,88.31
2022-12-29T09:59:52.406Z,87.78
2022-12-29T10:02:33.720Z,88.15
2022-12-29T10:05:02.246Z,87.61
2022-12-29T10:07:46.722Z,87.96
2022-12-29T10:10:29.380Z,87.60
2022-12-29T10:13:21.102Z,85.27
2022-12-29T10:16:02.830Z,84.59
2022-12-29T10:18:46.804Z,84.75
2022-12-29T10:21:26.979Z,84.99
2022-12-29T10:23:55.762Z,84.89
2022-12-29T10:26:28.467Z,85.65
2022-12-29T10:28:59.798Z,84.18
2022-12-29T10:31:35.948Z,83.41
2022-12-29T10:34:12.252Z,84.22
2022-12-29T10:36:44.053Z,82.55
2022-12-29T10:39:16.537Z,82.93
2022-12-29T10:41:50.518Z,81.34
2022-12-29T10:44:20.285Z,80.76
2022-12-29T10:46:56.726Z,81.05
2022-12-29T10:49:28.550Z,81.00
2022-12-29T10:52:00.281Z,80.41
2022-12-29T10:54:34.625Z,80.84
2022-12-29T10:57:07.434Z,79.57
2022-12-29T10:59:37.551Z,80.18
2022-12-29T11:02:37.192Z,80.21
2022-12-29T11:05:12.099Z,80.18
2022-12-29T11:07:40.546Z,80.42
2022-12-29T11:10:20.220Z,80.49
2022-12-29T11:12:58.225Z,81.53
2022-12-29T11:15:26.403Z,80.23
2022-12-29T11:18:00.300Z,79.08
2022-12-29T11:20:32.169Z,78.66
2022-12-29T11:23:01.124Z,77.85
2022-12-29T11:25:29.112Z,77.05
2022-12-29T11:28:00.217Z,77.48
2022-12-29T11:30:30.577Z,77.15
2022-12-29T11:33:00.141Z,75.87
2022-12-29T11:35:37.057Z,75.71
2022-12-29T11:38:06.460Z,76.61
2022-12-29T11:40:41.253Z,74.51
2022-12-29T11:43:23.787Z,75.10
2022-12-29T11:45:54.730Z,74.70
2022-12-29T11:48:27.451Z,75.94
2022-12-29T11:51:01.237Z,73.61
2022-12-29T11:53:33.296Z,73.48
2022-12-29T11:56:04.609Z,73.71
2022-12-29T11:58:34.615Z,73.69
2022-12-29T12:01:06.004Z,72.27
2022-12-29T12:03:40.187Z,72.20
2022-12-29T12:06:13.825Z,72.62
2022-12-29T12:08:47.234Z,70.60
2022-12-29T12:11:18.537Z,71.56
2022-12-29T12:13:55.389Z,70.36
2022-12-29T12:16:26.717Z,70.20
2022-12-29T12:19:03.084Z,69.93
2022-12-29T12:21:40.429Z,68.57
2022-12-29T12:24:29.197Z,69.17
2022-12-29T12:27:04.391Z,69.15
2022-12-29T12:29:40.482Z,69.35
2022-12-29T12:32:17.238Z,68.55
2022-12-29T12:34:49.981Z,68.63
2022-12-29T12:37:32.190Z,69.08
2022-12-29T12:40:30.850Z,68.01
2022-12-29T12:43:14.481Z,68.76
2022-12-29T12:45:51.358Z,68.86
2022-12-29T12:48:41.007Z,68.92
2022-12-29T12:51:20.716Z,69.82
2022-12-29T12:54:16.307Z,70.18
2022-12-29T12:56:57.874Z,71.02
2022-12-29T12:59:49.659Z,72.34
2022-12-29T13:02:34.242Z,72.11
2022-12-29T13:05:26.781Z,72.40
2022-12-29T13:08:15.834Z,72.41
2022-12-29T13:10:53.570Z,72.54
2022-12-29T13:13:47.466Z,73.17
2022-12-29T13:16:29.098Z,72.42
2022-12-29T13:19:05.846Z,72.21
2022-12-29T13:21:56.149Z,72.46
2022-12-29T13:24:37.150Z,72.53
2022-12-29T13:27:16.334Z,71.55
2022-12-29T13:29:49.219Z,71.06
2022-12-29T13:32:28.262Z,70.77
2022-12-29T13:35:13.664Z,69.95
2022-12-29T13:37:50.364Z,69.08
2022-12-29T13:40:25.154Z,69.14
2022-12-29T13:42:54.233Z,69.35
2022-12-29T13:45:24.869Z,70.00
2022-12-29T13:47:58.007Z,69.74
2022-12-29T13:50:30.447Z,69.53
2022-12-29T13:53:10.730Z,68.50
2022-12-29T13:55:48.983Z,68.41
2022-12-29T13:58:26.556Z,67.58
2022-12-29T14:00:59.532Z,66.99
2022-12-29T14:03:49.032Z,66.37
2022-12-29T14:06:24.992Z,66.67
2022-12-29T14:08:56.068Z,66.73
2022-12-29T14:11:31.585Z,66.75
2022-12-29T14:14:00.397Z,67.53
2022-12-29T14:16:32.226Z,67.23
2022-12-29T14:19:12.083Z,67.73
2022-12-29T14:21:40.784Z,68.51
2022-12-29T14:24:46.512Z,68.83
2022-12-29T14:27:55.306Z,69.13
2022-12-29T14:30:59.709Z,69.36
2022-12-29T14:33:30.625Z,69.39
2022-12-29T14:36:19.177Z,69.77
2022-12-29T14:38:47.993Z,69.10
2022-12-29T14:41:35.945Z,69.10
2022-12-29T14:44:19.174Z,68.53
2022-12-29T14:46:51.398Z,68.53
2022-12-29T14:49:22.523Z,68.37
2022-12-29T14:51:56.867Z,67.93
2022-12-29T14:54:52.351Z,67.60
2022-12-29T14:57:38.222Z,66.92
2022-12-29T15:00:21.934Z,66.99
2022-12-29T15:02:52.589Z,66.39
2022-12-29T15:05:38.818Z,66.46
2022-12-29T15:08:14.898Z,65.95
2022-12-29T15:10:56.148Z,66.28
2022-12-29T15:13:26.799Z,66.82
2022-12-29T15:15:56.251Z,67.08
2022-12-29T15:18:27.759Z,67.85
2022-12-29T15:20:58.523Z,67.79
2022-12-29T15:23:26.831Z,67.20
2022-12-29T15:25:57.594Z,67.34
2022-12-29T15:28:26.318Z,67.19
2022-12-29T15:30:57.521Z,67.36
2022-12-29T15:33:28.838Z,67.49
2022-12-29T15:36:04.340Z,67.67
2022-12-29T15:38:39.971Z,68.03
2022-12-29T15:41:15.554Z,67.59
2022-12-29T15:43:56.730Z,66.95
2022-12-29T15:46:26.276Z,66.74
2022-12-29T15:48:54.284Z,66.87
2022-12-29T15:51:29.296Z,66.88
2022-12-29T15:53:57.676Z,66.70
2022-12-29T15:56:25.995Z,66.08
2022-12-29T15:58:54.078Z,65.66
2022-12-29T16:01:30.269Z,65.47
2022-12-29T16:04:00.971Z,65.53
2022-12-29T16:06:32.244Z,66.03
2022-12-29T16:09:03.464Z,66.13
2022-12-29T16:11:36.207Z,66.30
2022-12-29T16:14:09.836Z,66.55
2022-12-29T16:16:41.812Z,67.29
2022-12-29T16:19:15.831Z,67.30
2022-12-29T16:21:44.416Z,68.50
2022-12-29T16:24:17.720Z,68.53
2022-12-29T16:26:51.617Z,69.21
2022-12-29T16:29:22.649Z,68.86
2022-12-29T16:32:01.122Z,69.02
2022-12-29T16:34:33.480Z,69.08
2022-12-29T16:37:03.547Z,69.79
2022-12-29T16:39:35.249Z,69.56
2022-12-29T16:42:03.362Z,69.05
2022-12-29T16:44:34.935Z,68.43
2022-12-29T16:47:18.338Z,68.81
2022-12-29T16:49:52.280Z,69.00
2022-12-29T16:52:29.518Z,69.88
2022-12-29T16:55:03.053Z,71.18
2022-12-29T16:57:34.724Z,72.29
2022-12-29T17:00:07.441Z,72.32
2022-12-29T17:02:48.191Z,73.28
2022-12-29T17:05:19.820Z,73.84
2022-12-29T17:07:49.802Z,74.36
2022-12-29T17:10:20.239Z,75.22
2022-12-29T17:12:50.905Z,75.22
2022-12-29T17:15:33.197Z,75.40
2022-12-29T17:18:02.762Z,75.10
2022-12-29T17:20:32.280Z,74.96
2022-12-29T17:23:00.717Z,75.33
2022-12-29T17:25:33.193Z,76.29
2022-12-29T17:28:07.364Z,75.64
2022-12-29T17:30:36.237Z,76.43
2022-12-29T17:33:08.786Z,75.97
2022-12-29T17:35:36.912Z,76.35
2022-12-29T17:38:07.018Z,75.85
2022-12-29T17:40:35.021Z,76.10
2022-12-29T17:43:02.909Z,75.79
2022-12-29T17:45:33.390Z,75.63
2022-12-29T17:48:01.855Z,75.27
2022-12-29T17:50:32.673Z,75.00
2022-12-29T17:53:02.688Z,74.04
2022-12-29T17:55:37.140Z,74.05
2022-12-29T17:58:18.069Z,73.50
2022-12-29T18:00:46.565Z,73.04
2022-12-29T18:03:16.387Z,73.17
2022-12-29T18:05:45.955Z,73.68
2022-12-29T18:08:13.797Z,73.12
2022-12-29T18:10:43.413Z,72.66
2022-12-29T18:13:21.241Z,73.41
2022-12-29T18:15:50.252Z,73.32
2022-12-29T18:18:20.097Z,72.87
2022-12-29T18:20:51.612Z,72.73
2022-12-29T18:23:22.178Z,72.65
2022-12-29T18:25:53.821Z,71.78
2022-12-29T18:28:21.991Z,72.27
2022-12-29T18:30:50.395Z,71.75
2022-12-29T18:33:23.386Z,71.80
2022-12-29T18:36:02.443Z,71.93
2022-12-29T18:38:30.641Z,72.14
2022-12-29T18:41:01.013Z,71.92
2022-12-29T18:43:28.899Z,72.03
2022-12-29T18:45:57.006Z,72.48
2022-12-29T18:48:24.777Z,72.14
2022-12-29T18:50:53.885Z,72.33
2022-12-29T18:53:24.495Z,71.93
2022-12-29T18:55:53.183Z,71.71
2022-12-29T18:58:21.137Z,71.93
2022-12-29T19:00:49.053Z,72.21
2022-12-29T19:03:19.739Z,72.22
2022-12-29T19:05:48.998Z,71.77
2022-12-29T19:08:18.678Z,71.35
2022-12-29T19:10:46.872Z,71.22
2022-12-29T19:13:17.572Z,71.31
2022-12-29T19:15:46.479Z,71.64
2022-12-29T19:21:07.237Z,70.44
2022-12-29T19:23:36.585Z,69.97
2022-12-29T19:26:04.634Z,70.25
2022-12-29T19:28:32.795Z,70.56
2022-12-29T19:31:03.715Z,70.49
2022-12-29T19:33:31.730Z,69.95
2022-12-29T19:36:01.162Z,69.59
2022-12-29T19:38:29.093Z,69.82
2022-12-29T19:40:58.564Z,69.90
2022-12-29T19:43:26.532Z,69.50
2022-12-29T19:45:54.377Z,69.87
2022-12-29T19:48:22.175Z,70.55
2022-12-29T19:50:50.232Z,70.65
2022-12-29T19:53:18.396Z,70.51
2022-12-29T19:55:47.947Z,70.15
2022-12-29T19:58:17.196Z,69.87
2022-12-29T20:00:45.377Z,70.84
2022-12-29T20:03:13.525Z,70.44
2022-12-29T20:05:41.585Z,70.73
2022-12-29T20:08:09.689Z,70.77
2022-12-29T20:10:37.638Z,70.79
2022-12-29T20:13:07.961Z,70.56
2022-12-29T20:15:37.329Z,70.69
2022-12-29T20:18:13.804Z,70.43
2022-12-29T20:20:43.159Z,70.44
2022-12-29T20:23:11.668Z,69.94
2022-12-29T20:25:45.315Z,70.23
2022-12-29T20:28:16.953Z,70.56
2022-12-29T20:30:46.458Z,70.78
2022-12-29T20:33:14.525Z,70.93
2022-12-29T20:35:42.425Z,71.37
2022-12-29T20:38:10.364Z,70.95
2022-12-29T20:40:45.939Z,70.37
2022-12-29T20:43:15.763Z,70.98
2022-12-29T20:45:44.486Z,70.10
2022-12-29T20:48:14.307Z,71.40
2022-12-29T20:50:42.570Z,70.81
2022-12-29T20:53:11.610Z,71.17
2022-12-29T20:55:41.173Z,71.24
2022-12-29T20:58:25.853Z,72.68
2022-12-29T21:00:54.116Z,73.66
2022-12-29T21:03:23.571Z,73.92
2022-12-29T21:05:53.676Z,74.82
2022-12-29T21:08:22.158Z,75.10
2022-12-29T21:10:51.374Z,75.04
2022-12-29T21:13:19.563Z,75.03
2022-12-29T21:15:47.708Z,75.05
2022-12-29T21:18:16.051Z,75.47
2022-12-29T21:20:45.439Z,76.16
2022-12-29T21:23:13.933Z,76.87
2022-12-29T21:25:45.117Z,76.42
2022-12-29T21:28:13.261Z,77.16
2022-12-29T21:30:42.231Z,75.70
2022-12-29T21:33:10.336Z,74.98
2022-12-29T21:35:38.986Z,74.16
2022-12-29T21:38:08.300Z,73.85
2022-12-29T21:40:38.307Z,73.99
2022-12-29T21:43:06.553Z,73.82
2022-12-29T21:45:34.348Z,73.89
2022-12-29T21:48:24.940Z,73.83
2022-12-29T21:51:11.788Z,73.78
2022-12-29T21:53:43.405Z,74.70
2022-12-29T21:56:14.370Z,74.57
2022-12-29T21:59:01.755Z,75.49
2022-12-29T22:01:49.144Z,76.03
2022-12-29T22:04:36.407Z,77.14
2022-12-29T22:07:25.025Z,76.87
2022-12-29T22:10:15.466Z,76.52
2022-12-29T22:13:03.014Z,77.65
2022-12-29T22:15:33.643Z,77.43
2022-12-29T22:18:02.635Z,77.15
2022-12-29T22:20:34.973Z,77.61
2022-12-29T22:23:03.459Z,77.65
2022-12-29T22:25:32.900Z,77.56
2022-12-29T22:28:00.955Z,77.32
2022-12-29T22:30:29.486Z,76.93
2022-12-29T22:32:58.872Z,77.02
2022-12-29T22:35:26.761Z,77.58
2022-12-29T22:37:55.048Z,77.75
2022-12-29T22:40:23.046Z,77.48
2022-12-29T22:42:52.377Z,77.31
2022-12-29T22:45:20.417Z,77.47
2022-12-29T22:47:48.390Z,77.51
2022-12-29T22:50:17.130Z,76.69
2022-12-29T22:52:45.036Z,76.98
2022-12-29T22:55:12.906Z,76.94
2022-12-29T22:57:40.791Z,76.65
2022-12-29T23:00:11.083Z,76.90
2022-12-29T23:02:40.725Z,77.67
2022-12-29T23:05:09.635Z,77.91
2022-12-29T23:07:38.332Z,78.21
2022-12-29T23:10:07.240Z,78.92
2022-12-29T23:12:35.377Z,78.76
2022-12-29T23:15:03.329Z,78.33
2022-12-29T23:17:33.234Z,78.30
2022-12-29T23:20:01.935Z,77.90
2022-12-29T23:22:29.966Z,77.64
2022-12-29T23:24:58.460Z,77.33
2022-12-29T23:27:26.503Z,77.21
2022-12-29T23:29:54.873Z,76.32
2022-12-29T23:32:23.187Z,76.31
2022-12-29T23:34:53.343Z,76.82
2022-12-29T23:37:21.138Z,76.29
2022-12-29T23:39:49.485Z,76.13
2022-12-29T23:42:17.391Z,76.17
2022-12-29T23:44:45.765Z,75.74
2022-12-29T23:47:14.322Z,75.51
2022-12-29T23:49:42.326Z,75.88
2022-12-29T23:52:12.312Z,76.16
2022-12-29T23:54:40.816Z,76.60
2022-12-29T23:57:10.850Z,76.72
2022-12-29T23:59:39.056Z,76.63
